Mansfield, WA (98830)

11:00 PM PDT on July 30, 2016 (GMT -0700)
The Highlands | | Change Station

Elev 1610 ft 47.86 °N, 120.04 °W | Updated 5 minutes ago

Clear
Clear
74.2 °F
Feels Like 77 °F
N
6.0
Wind Variable Wind from West
Gusts 15.0 mph

Today
High -- | Low -- °F
--% Chance of Precip.
Yesterday
High -- | Low -- °F
Precip. -- in
Pressure 29.67 in
Visibility 10.0 miles
Clouds Clear
Heat Index 77 °F
Dew Point 42 °F
Humidity 31%
Rainfall 0.00 in
Snow Depth Not available.
5:33 AM 8:35 PM
Waning Crescent, 8% visible
METAR KEPH 310553Z AUTO 23009KT 10SM CLR 23/02 A2970 RMK AO2 SLP045 T02330017 10356 20222 51016
Pressure 29.67 in
Visibility 10.0 miles
Clouds Clear
Heat Index 77 °F
Dew Point 42 °F
Humidity 31%
Rainfall 0.00 in
Snow Depth Not available.
5:33 AM 8:35 PM
Waning Crescent, 8% visible
METAR KEPH 310553Z AUTO 23009KT 10SM CLR 23/02 A2970 RMK AO2 SLP045 T02330017 10356 20222 51016

10-Day Weather Forecast

Almanac

Astronomy

Jul. 30, 2016 Rise Set
Actual Time
Civil Twilight
Nautical Twilight
Astronomical Twilight
Moon
Length of Visible Light
Length of Day
Tomorrow will be .
, % of the Moon is Illuminated

Today's Extremes

State Highs State Lows

Community

WunderPhotos

Upload Photos

1,928,766 photos uploaded!

WunderBlog® & News

Nearby

Air Quality

  Air Quality AQ Index Pollutant
Not available.

Snow Depth

Station Depth Elevation

Earthquake Activity

City Distance Mag. Time & Date
Minimum magnitude displayed is 2.5.

Coastal Water Temperatures

Place Temperature

Stations

Nearby Weather Stations

Station Location Temp. Windchill Dew Point Humidity Wind Precip. Elev Updated Type
                   

Watches & Warnings

There are currently no watches in effect.